sensor_id;sensor_type;location;lat;lon;timestamp;pressure;altitude;pressure_sealevel;temperature;humidity
68107;BME280;54892;47.488;19.026;2022-12-18T00:00:19;101370.47;;;-1.64;76.89
68107;BME280;54892;47.488;19.026;2022-12-18T00:03:22;101374.44;;;-1.60;76.47
68107;BME280;54892;47.488;19.026;2022-12-18T00:06:27;101380.66;;;-1.53;76.31
68107;BME280;54892;47.488;19.026;2022-12-18T00:09:31;101386.72;;;-1.72;76.48
68107;BME280;54892;47.488;19.026;2022-12-18T00:12:35;101386.88;;;-1.74;76.41
68107;BME280;54892;47.488;19.026;2022-12-18T00:15:39;101402.50;;;-1.65;76.34
68107;BME280;54892;47.488;19.026;2022-12-18T00:18:43;101416.03;;;-1.72;76.18
68107;BME280;54892;47.488;19.026;2022-12-18T00:21:47;101422.56;;;-1.87;76.70
68107;BME280;54892;47.488;19.026;2022-12-18T00:24:51;101432.94;;;-1.87;76.71
68107;BME280;54892;47.488;19.026;2022-12-18T00:27:55;101426.13;;;-1.88;76.79
68107;BME280;54892;47.488;19.026;2022-12-18T00:31:00;101437.69;;;-1.92;76.74
68107;BME280;54892;47.488;19.026;2022-12-18T00:34:04;101434.25;;;-1.93;77.02
68107;BME280;54892;47.488;19.026;2022-12-18T00:37:07;101443.13;;;-1.95;76.68
68107;BME280;54892;47.488;19.026;2022-12-18T00:40:11;101449.00;;;-1.93;76.64
68107;BME280;54892;47.488;19.026;2022-12-18T00:43:16;101452.25;;;-1.91;76.65
68107;BME280;54892;47.488;19.026;2022-12-18T00:46:18;101456.34;;;-1.89;76.67
68107;BME280;54892;47.488;19.026;2022-12-18T00:49:23;101457.56;;;-1.93;76.77
68107;BME280;54892;47.488;19.026;2022-12-18T00:52:26;101459.06;;;-1.90;76.32
68107;BME280;54892;47.488;19.026;2022-12-18T00:55:34;101455.53;;;-1.99;76.58
68107;BME280;54892;47.488;19.026;2022-12-18T00:58:39;101463.41;;;-2.01;76.71
68107;BME280;54892;47.488;19.026;2022-12-18T01:01:42;101464.94;;;-1.98;76.64
68107;BME280;54892;47.488;19.026;2022-12-18T01:04:45;101481.25;;;-1.97;76.71
68107;BME280;54892;47.488;19.026;2022-12-18T01:07:49;101478.13;;;-1.91;76.50
68107;BME280;54892;47.488;19.026;2022-12-18T01:10:52;101494.34;;;-1.99;76.72
68107;BME280;54892;47.488;19.026;2022-12-18T01:13:57;101485.47;;;-1.96;76.71
68107;BME280;54892;47.488;19.026;2022-12-18T01:17:00;101489.72;;;-1.86;76.36
68107;BME280;54892;47.488;19.026;2022-12-18T01:20:05;101488.91;;;-1.96;76.83
68107;BME280;54892;47.488;19.026;2022-12-18T01:23:09;101497.19;;;-1.92;76.92
68107;BME280;54892;47.488;19.026;2022-12-18T01:26:16;101498.81;;;-2.11;77.41
68107;BME280;54892;47.488;19.026;2022-12-18T01:29:20;101507.38;;;-2.01;76.88
68107;BME280;54892;47.488;19.026;2022-12-18T01:32:23;101511.34;;;-2.06;77.23
68107;BME280;54892;47.488;19.026;2022-12-18T01:35:27;101511.59;;;-2.19;77.89
68107;BME280;54892;47.488;19.026;2022-12-18T01:38:30;101515.53;;;-2.25;78.06
68107;BME280;54892;47.488;19.026;2022-12-18T01:41:35;101512.69;;;-2.12;77.68
68107;BME280;54892;47.488;19.026;2022-12-18T01:45:05;101512.97;;;-2.05;77.59
68107;BME280;54892;47.488;19.026;2022-12-18T01:48:09;101517.31;;;-2.16;77.80
68107;BME280;54892;47.488;19.026;2022-12-18T01:51:12;101518.13;;;-2.15;77.88
68107;BME280;54892;47.488;19.026;2022-12-18T01:54:16;101525.09;;;-2.16;77.58
68107;BME280;54892;47.488;19.026;2022-12-18T01:57:21;101524.69;;;-2.11;77.55
68107;BME280;54892;47.488;19.026;2022-12-18T02:00:27;101534.47;;;-2.15;77.14
68107;BME280;54892;47.488;19.026;2022-12-18T02:03:30;101538.31;;;-2.09;77.11
68107;BME280;54892;47.488;19.026;2022-12-18T02:06:38;101538.72;;;-2.04;76.80
68107;BME280;54892;47.488;19.026;2022-12-18T02:09:46;101534.50;;;-2.05;76.36
68107;BME280;54892;47.488;19.026;2022-12-18T02:12:54;101542.56;;;-1.88;75.58
68107;BME280;54892;47.488;19.026;2022-12-18T02:16:05;101542.66;;;-2.00;76.37
68107;BME280;54892;47.488;19.026;2022-12-18T02:19:25;101550.16;;;-2.06;76.52
68107;BME280;54892;47.488;19.026;2022-12-18T02:22:37;101555.78;;;-1.91;76.20
68107;BME280;54892;47.488;19.026;2022-12-18T02:26:05;101552.31;;;-2.21;77.21
68107;BME280;54892;47.488;19.026;2022-12-18T02:29:13;101552.31;;;-2.21;77.50
68107;BME280;54892;47.488;19.026;2022-12-18T02:32:23;101564.16;;;-2.19;77.35
68107;BME280;54892;47.488;19.026;2022-12-18T02:35:30;101570.69;;;-2.15;77.14
68107;BME280;54892;47.488;19.026;2022-12-18T02:38:35;101564.44;;;-2.12;77.16
68107;BME280;54892;47.488;19.026;2022-12-18T02:41:41;101566.22;;;-2.12;77.08
68107;BME280;54892;47.488;19.026;2022-12-18T02:44:45;101579.44;;;-2.06;76.78
68107;BME280;54892;47.488;19.026;2022-12-18T02:47:49;101572.84;;;-2.20;76.90
68107;BME280;54892;47.488;19.026;2022-12-18T02:50:57;101581.59;;;-2.11;77.02
68107;BME280;54892;47.488;19.026;2022-12-18T02:54:08;101580.25;;;-2.05;76.67
68107;BME280;54892;47.488;19.026;2022-12-18T02:57:20;101585.81;;;-2.10;77.48
68107;BME280;54892;47.488;19.026;2022-12-18T03:00:30;101590.41;;;-2.23;77.44
68107;BME280;54892;47.488;19.026;2022-12-18T03:03:38;101597.34;;;-2.24;77.28
68107;BME280;54892;47.488;19.026;2022-12-18T03:06:47;101596.37;;;-2.23;77.40
68107;BME280;54892;47.488;19.026;2022-12-18T03:09:53;101604.97;;;-2.22;77.37
68107;BME280;54892;47.488;19.026;2022-12-18T03:13:03;101610.16;;;-2.22;77.62
68107;BME280;54892;47.488;19.026;2022-12-18T03:16:10;101610.13;;;-2.32;77.95
68107;BME280;54892;47.488;19.026;2022-12-18T03:19:16;101615.97;;;-2.30;78.06
68107;BME280;54892;47.488;19.026;2022-12-18T03:22:22;101607.97;;;-2.27;77.53
68107;BME280;54892;47.488;19.026;2022-12-18T03:25:27;101612.84;;;-2.34;78.23
68107;BME280;54892;47.488;19.026;2022-12-18T03:28:33;101613.16;;;-2.17;77.70
68107;BME280;54892;47.488;19.026;2022-12-18T03:31:41;101617.13;;;-2.44;78.91
68107;BME280;54892;47.488;19.026;2022-12-18T03:34:48;101634.22;;;-2.53;79.89
68107;BME280;54892;47.488;19.026;2022-12-18T03:37:53;101636.91;;;-2.64;80.15
68107;BME280;54892;47.488;19.026;2022-12-18T03:40:59;101649.44;;;-2.60;79.92
68107;BME280;54892;47.488;19.026;2022-12-18T03:44:12;101645.16;;;-2.70;80.74
68107;BME280;54892;47.488;19.026;2022-12-18T03:47:20;101647.88;;;-2.72;81.30
68107;BME280;54892;47.488;19.026;2022-12-18T03:50:36;101647.16;;;-2.74;81.90
68107;BME280;54892;47.488;19.026;2022-12-18T03:53:43;101650.63;;;-2.64;81.06
68107;BME280;54892;47.488;19.026;2022-12-18T03:56:54;101649.63;;;-2.51;80.72
68107;BME280;54892;47.488;19.026;2022-12-18T04:00:04;101651.00;;;-2.68;81.08
68107;BME280;54892;47.488;19.026;2022-12-18T04:03:10;101650.56;;;-2.95;82.36
68107;BME280;54892;47.488;19.026;2022-12-18T04:06:14;101641.84;;;-2.94;83.01
68107;BME280;54892;47.488;19.026;2022-12-18T04:09:20;101650.31;;;-2.92;83.02
68107;BME280;54892;47.488;19.026;2022-12-18T04:12:24;101660.87;;;-2.95;82.61
68107;BME280;54892;47.488;19.026;2022-12-18T04:15:31;101666.88;;;-2.94;82.94
68107;BME280;54892;47.488;19.026;2022-12-18T04:18:37;101670.34;;;-3.05;83.68
68107;BME280;54892;47.488;19.026;2022-12-18T04:21:41;101667.16;;;-3.30;84.55
68107;BME280;54892;47.488;19.026;2022-12-18T04:24:44;101668.66;;;-3.27;84.42
68107;BME280;54892;47.488;19.026;2022-12-18T04:27:48;101671.72;;;-3.33;84.73
68107;BME280;54892;47.488;19.026;2022-12-18T04:30:53;101668.31;;;-3.34;84.71
68107;BME280;54892;47.488;19.026;2022-12-18T04:33:56;101663.72;;;-3.30;84.53
68107;BME280;54892;47.488;19.026;2022-12-18T04:37:00;101679.59;;;-3.35;85.25
68107;BME280;54892;47.488;19.026;2022-12-18T04:40:04;101681.47;;;-3.37;85.40
68107;BME280;54892;47.488;19.026;2022-12-18T04:43:07;101683.59;;;-3.42;85.45
68107;BME280;54892;47.488;19.026;2022-12-18T04:46:12;101688.75;;;-3.42;85.94
68107;BME280;54892;47.488;19.026;2022-12-18T04:49:16;101692.03;;;-3.40;85.73
68107;BME280;54892;47.488;19.026;2022-12-18T04:52:20;101702.34;;;-3.40;85.28
68107;BME280;54892;47.488;19.026;2022-12-18T04:55:26;101706.62;;;-3.50;85.77
68107;BME280;54892;47.488;19.026;2022-12-18T04:58:30;101714.94;;;-3.47;85.70
68107;BME280;54892;47.488;19.026;2022-12-18T05:01:34;101711.66;;;-3.60;86.10
68107;BME280;54892;47.488;19.026;2022-12-18T05:04:38;101711.44;;;-3.57;86.21
68107;BME280;54892;47.488;19.026;2022-12-18T05:07:42;101718.72;;;-3.51;85.98
68107;BME280;54892;47.488;19.026;2022-12-18T05:10:45;101718.34;;;-3.58;86.46
68107;BME280;54892;47.488;19.026;2022-12-18T05:13:48;101728.78;;;-3.59;86.72
68107;BME280;54892;47.488;19.026;2022-12-18T05:16:54;101728.66;;;-3.58;86.66
68107;BME280;54892;47.488;19.026;2022-12-18T05:20:03;101730.78;;;-3.63;86.58
68107;BME280;54892;47.488;19.026;2022-12-18T05:23:06;101724.00;;;-3.64;86.52
68107;BME280;54892;47.488;19.026;2022-12-18T05:26:14;101731.59;;;-3.62;86.45
68107;BME280;54892;47.488;19.026;2022-12-18T05:29:19;101731.03;;;-3.66;86.72
68107;BME280;54892;47.488;19.026;2022-12-18T05:32:23;101741.81;;;-3.72;87.40
68107;BME280;54892;47.488;19.026;2022-12-18T05:35:27;101739.59;;;-3.77;87.60
68107;BME280;54892;47.488;19.026;2022-12-18T05:38:31;101739.94;;;-3.82;87.57
68107;BME280;54892;47.488;19.026;2022-12-18T05:41:36;101745.69;;;-3.89;87.46
68107;BME280;54892;47.488;19.026;2022-12-18T05:44:39;101754.12;;;-3.87;87.70
68107;BME280;54892;47.488;19.026;2022-12-18T05:47:44;101759.41;;;-3.89;87.28
68107;BME280;54892;47.488;19.026;2022-12-18T05:50:49;101762.22;;;-3.92;87.43
68107;BME280;54892;47.488;19.026;2022-12-18T05:53:52;101769.13;;;-3.92;87.65
68107;BME280;54892;47.488;19.026;2022-12-18T05:56:56;101770.41;;;-3.98;87.68
68107;BME280;54892;47.488;19.026;2022-12-18T05:59:59;101769.34;;;-3.95;87.61
68107;BME280;54892;47.488;19.026;2022-12-18T06:03:04;101765.03;;;-3.95;87.87
68107;BME280;54892;47.488;19.026;2022-12-18T06:06:14;101774.06;;;-3.89;87.83
68107;BME280;54892;47.488;19.026;2022-12-18T06:09:18;101778.63;;;-3.93;87.75
68107;BME280;54892;47.488;19.026;2022-12-18T06:12:22;101781.66;;;-3.99;87.93
68107;BME280;54892;47.488;19.026;2022-12-18T06:15:26;101784.97;;;-3.97;87.78
68107;BME280;54892;47.488;19.026;2022-12-18T06:18:30;101783.91;;;-3.94;87.99
68107;BME280;54892;47.488;19.026;2022-12-18T06:21:34;101777.34;;;-3.87;88.04
68107;BME280;54892;47.488;19.026;2022-12-18T06:24:38;101783.31;;;-3.87;88.12
68107;BME280;54892;47.488;19.026;2022-12-18T06:27:41;101793.63;;;-3.87;88.24
68107;BME280;54892;47.488;19.026;2022-12-18T06:30:45;101799.41;;;-3.83;88.10
68107;BME280;54892;47.488;19.026;2022-12-18T06:33:49;101809.47;;;-3.80;87.88
68107;BME280;54892;47.488;19.026;2022-12-18T06:36:56;101812.19;;;-3.82;87.84
68107;BME280;54892;47.488;19.026;2022-12-18T06:40:00;101813.75;;;-3.68;87.10
68107;BME280;54892;47.488;19.026;2022-12-18T06:43:04;101818.16;;;-3.81;87.47
68107;BME280;54892;47.488;19.026;2022-12-18T06:46:08;101827.66;;;-3.82;87.37
68107;BME280;54892;47.488;19.026;2022-12-18T06:49:12;101826.37;;;-3.87;87.17
68107;BME280;54892;47.488;19.026;2022-12-18T06:52:16;101832.59;;;-3.78;87.09
68107;BME280;54892;47.488;19.026;2022-12-18T06:55:19;101831.09;;;-3.58;86.21
68107;BME280;54892;47.488;19.026;2022-12-18T06:58:23;101836.84;;;-3.66;86.32
68107;BME280;54892;47.488;19.026;2022-12-18T07:01:26;101847.75;;;-3.62;86.25
68107;BME280;54892;47.488;19.026;2022-12-18T07:04:33;101849.53;;;-3.52;85.89
68107;BME280;54892;47.488;19.026;2022-12-18T07:07:37;101858.62;;;-3.70;86.52
68107;BME280;54892;47.488;19.026;2022-12-18T07:10:42;101861.69;;;-3.76;87.00
68107;BME280;54892;47.488;19.026;2022-12-18T07:13:47;101861.34;;;-3.72;87.14
68107;BME280;54892;47.488;19.026;2022-12-18T07:16:51;101870.25;;;-3.64;87.12
68107;BME280;54892;47.488;19.026;2022-12-18T07:19:57;101873.31;;;-3.59;86.91
68107;BME280;54892;47.488;19.026;2022-12-18T07:23:01;101876.75;;;-3.47;86.62
68107;BME280;54892;47.488;19.026;2022-12-18T07:26:07;101888.94;;;-3.49;86.21
68107;BME280;54892;47.488;19.026;2022-12-18T07:29:11;101882.94;;;-3.50;85.75
68107;BME280;54892;47.488;19.026;2022-12-18T07:32:15;101894.81;;;-3.47;85.75
68107;BME280;54892;47.488;19.026;2022-12-18T07:35:20;101905.38;;;-3.39;85.63
68107;BME280;54892;47.488;19.026;2022-12-18T07:38:25;101910.59;;;-3.28;85.59
68107;BME280;54892;47.488;19.026;2022-12-18T07:41:29;101905.88;;;-3.23;84.99
68107;BME280;54892;47.488;19.026;2022-12-18T07:44:32;101917.84;;;-3.10;84.62
68107;BME280;54892;47.488;19.026;2022-12-18T07:47:35;101913.88;;;-3.14;84.72
68107;BME280;54892;47.488;19.026;2022-12-18T07:50:40;101933.25;;;-3.09;84.94
68107;BME280;54892;47.488;19.026;2022-12-18T07:53:44;101928.91;;;-2.97;84.83
68107;BME280;54892;47.488;19.026;2022-12-18T07:56:48;101933.09;;;-2.96;85.05
68107;BME280;54892;47.488;19.026;2022-12-18T07:59:52;101941.34;;;-2.91;85.20
68107;BME280;54892;47.488;19.026;2022-12-18T08:02:56;101939.69;;;-2.80;84.93
68107;BME280;54892;47.488;19.026;2022-12-18T08:06:02;101939.09;;;-2.72;84.80
68107;BME280;54892;47.488;19.026;2022-12-18T08:09:06;101941.34;;;-2.68;84.60
68107;BME280;54892;47.488;19.026;2022-12-18T08:12:10;101951.50;;;-2.32;83.21
68107;BME280;54892;47.488;19.026;2022-12-18T08:15:14;101959.13;;;-2.19;81.82
68107;BME280;54892;47.488;19.026;2022-12-18T08:18:18;101964.91;;;-2.27;82.22
68107;BME280;54892;47.488;19.026;2022-12-18T08:21:25;101962.41;;;-2.28;82.49
68107;BME280;54892;47.488;19.026;2022-12-18T08:24:28;101960.06;;;-2.32;82.28
68107;BME280;54892;47.488;19.026;2022-12-18T08:27:31;101962.78;;;-2.33;82.45
68107;BME280;54892;47.488;19.026;2022-12-18T08:30:35;101969.94;;;-2.25;82.46
68107;BME280;54892;47.488;19.026;2022-12-18T08:33:39;101973.09;;;-2.10;81.44
68107;BME280;54892;47.488;19.026;2022-12-18T08:36:44;101974.38;;;-2.05;80.83
68107;BME280;54892;47.488;19.026;2022-12-18T08:39:48;101973.41;;;-2.04;80.82
68107;BME280;54892;47.488;19.026;2022-12-18T08:42:51;101979.09;;;-2.21;80.41
68107;BME280;54892;47.488;19.026;2022-12-18T08:46:12;101971.34;;;-2.21;81.12
68107;BME280;54892;47.488;19.026;2022-12-18T08:49:16;101982.94;;;-2.04;80.97
68107;BME280;54892;47.488;19.026;2022-12-18T08:52:21;101974.78;;;-1.88;80.87
68107;BME280;54892;47.488;19.026;2022-12-18T08:55:24;101980.84;;;-1.78;80.38
68107;BME280;54892;47.488;19.026;2022-12-18T08:58:28;101988.16;;;-1.83;79.52
68107;BME280;54892;47.488;19.026;2022-12-18T09:01:31;101985.66;;;-1.52;79.26
68107;BME280;54892;47.488;19.026;2022-12-18T09:04:34;101985.56;;;-1.50;79.60
68107;BME280;54892;47.488;19.026;2022-12-18T09:07:39;101999.87;;;-1.46;79.89
68107;BME280;54892;47.488;19.026;2022-12-18T09:10:43;102005.97;;;-1.36;78.83
68107;BME280;54892;47.488;19.026;2022-12-18T09:13:47;102010.38;;;-1.27;78.87
68107;BME280;54892;47.488;19.026;2022-12-18T09:16:50;102005.97;;;-1.36;79.45
68107;BME280;54892;47.488;19.026;2022-12-18T09:19:54;102017.97;;;-1.35;79.78
68107;BME280;54892;47.488;19.026;2022-12-18T09:22:59;102009.91;;;-1.32;79.86
68107;BME280;54892;47.488;19.026;2022-12-18T09:26:03;102002.59;;;-1.27;79.99
68107;BME280;54892;47.488;19.026;2022-12-18T09:29:06;101995.84;;;-1.18;79.15
68107;BME280;54892;47.488;19.026;2022-12-18T09:32:10;102007.03;;;-1.17;79.42
68107;BME280;54892;47.488;19.026;2022-12-18T09:35:16;102010.34;;;-1.05;78.41
68107;BME280;54892;47.488;19.026;2022-12-18T09:38:20;102001.78;;;-1.06;78.36
68107;BME280;54892;47.488;19.026;2022-12-18T09:41:38;102007.44;;;-0.91;78.39
68107;BME280;54892;47.488;19.026;2022-12-18T09:44:47;101990.88;;;-0.79;77.07
68107;BME280;54892;47.488;19.026;2022-12-18T09:47:53;102011.84;;;-0.82;77.77
68107;BME280;54892;47.488;19.026;2022-12-18T09:51:02;102004.50;;;-0.77;78.00
68107;BME280;54892;47.488;19.026;2022-12-18T09:54:12;102012.00;;;-0.73;78.09
68107;BME280;54892;47.488;19.026;2022-12-18T09:57:20;102008.12;;;-0.58;77.79
68107;BME280;54892;47.488;19.026;2022-12-18T10:00:25;102004.47;;;-0.46;75.73
68107;BME280;54892;47.488;19.026;2022-12-18T10:03:28;102008.63;;;-0.33;75.86
68107;BME280;54892;47.488;19.026;2022-12-18T10:06:36;102014.13;;;-0.17;74.95
68107;BME280;54892;47.488;19.026;2022-12-18T10:09:50;102002.91;;;-0.17;74.46
68107;BME280;54892;47.488;19.026;2022-12-18T10:13:05;102006.03;;;-0.23;75.50
68107;BME280;54892;47.488;19.026;2022-12-18T10:16:14;102004.28;;;-0.13;75.13
68107;BME280;54892;47.488;19.026;2022-12-18T10:19:28;101997.47;;;-0.04;74.41
68107;BME280;54892;47.488;19.026;2022-12-18T10:22:43;101999.41;;;0.13;73.90
68107;BME280;54892;47.488;19.026;2022-12-18T10:25:55;101999.66;;;0.10;73.24
68107;BME280;54892;47.488;19.026;2022-12-18T10:29:01;101996.66;;;0.25;72.23
68107;BME280;54892;47.488;19.026;2022-12-18T10:32:07;101996.66;;;0.25;71.67
68107;BME280;54892;47.488;19.026;2022-12-18T10:35:18;101993.38;;;0.33;72.15
68107;BME280;54892;47.488;19.026;2022-12-18T10:38:25;101997.19;;;0.58;71.00
68107;BME280;54892;47.488;19.026;2022-12-18T10:41:30;101997.06;;;0.40;71.91
68107;BME280;54892;47.488;19.026;2022-12-18T10:44:34;101994.59;;;0.48;71.69
68107;BME280;54892;47.488;19.026;2022-12-18T10:47:42;101988.97;;;0.53;71.83
68107;BME280;54892;47.488;19.026;2022-12-18T10:50:48;102005.22;;;0.74;70.81
68107;BME280;54892;47.488;19.026;2022-12-18T10:54:15;101996.91;;;0.61;71.51
68107;BME280;54892;47.488;19.026;2022-12-18T10:57:32;101993.47;;;0.70;71.77
68107;BME280;54892;47.488;19.026;2022-12-18T11:00:38;101994.28;;;0.71;71.52
68107;BME280;54892;47.488;19.026;2022-12-18T11:03:43;101988.09;;;0.82;70.51
68107;BME280;54892;47.488;19.026;2022-12-18T11:06:55;101994.16;;;0.72;70.78
68107;BME280;54892;47.488;19.026;2022-12-18T11:10:00;101983.97;;;0.99;69.97
68107;BME280;54892;47.488;19.026;2022-12-18T11:13:17;101977.38;;;1.04;69.15
68107;BME280;54892;47.488;19.026;2022-12-18T11:16:23;101971.03;;;1.17;68.84
68107;BME280;54892;47.488;19.026;2022-12-18T11:19:33;101981.75;;;1.04;69.08
68107;BME280;54892;47.488;19.026;2022-12-18T11:22:37;101973.56;;;0.99;69.30
68107;BME280;54892;47.488;19.026;2022-12-18T11:25:51;101972.41;;;1.11;69.15
68107;BME280;54892;47.488;19.026;2022-12-18T11:29:08;101981.28;;;1.18;68.44
68107;BME280;54892;47.488;19.026;2022-12-18T11:32:27;101976.47;;;1.24;67.17
68107;BME280;54892;47.488;19.026;2022-12-18T11:35:39;101977.81;;;1.28;67.67
68107;BME280;54892;47.488;19.026;2022-12-18T11:38:46;101970.97;;;1.27;67.33
68107;BME280;54892;47.488;19.026;2022-12-18T11:41:54;101969.19;;;1.27;68.37
68107;BME280;54892;47.488;19.026;2022-12-18T11:45:27;101967.22;;;1.39;66.55
68107;BME280;54892;47.488;19.026;2022-12-18T11:48:34;101960.34;;;1.20;67.96
68107;BME280;54892;47.488;19.026;2022-12-18T11:51:44;101958.53;;;1.20;68.29
68107;BME280;54892;47.488;19.026;2022-12-18T11:54:53;101956.78;;;1.21;68.27
68107;BME280;54892;47.488;19.026;2022-12-18T11:58:05;101953.31;;;1.48;66.03
68107;BME280;54892;47.488;19.026;2022-12-18T12:04:50;101961.84;;;1.69;64.06
68107;BME280;54892;47.488;19.026;2022-12-18T12:08:03;101954.63;;;1.62;63.58
68107;BME280;54892;47.488;19.026;2022-12-18T12:11:11;101952.44;;;1.40;64.93
68107;BME280;54892;47.488;19.026;2022-12-18T12:14:29;101954.97;;;1.49;65.34
68107;BME280;54892;47.488;19.026;2022-12-18T12:17:44;101951.78;;;1.74;64.13
68107;BME280;54892;47.488;19.026;2022-12-18T12:20:53;101949.50;;;1.71;64.13
68107;BME280;54892;47.488;19.026;2022-12-18T12:24:13;101946.75;;;1.72;63.40
68107;BME280;54892;47.488;19.026;2022-12-18T12:27:33;101950.09;;;1.64;63.99
68107;BME280;54892;47.488;19.026;2022-12-18T12:30:50;101953.16;;;1.78;63.03
68107;BME280;54892;47.488;19.026;2022-12-18T12:34:05;101946.47;;;1.75;62.74
68107;BME280;54892;47.488;19.026;2022-12-18T12:37:22;101951.28;;;1.70;63.03
68107;BME280;54892;47.488;19.026;2022-12-18T12:40:33;101961.47;;;1.63;63.97
68107;BME280;54892;47.488;19.026;2022-12-18T12:43:58;101950.09;;;1.82;61.75
68107;BME280;54892;47.488;19.026;2022-12-18T12:47:12;101955.13;;;1.66;62.35
68107;BME280;54892;47.488;19.026;2022-12-18T12:50:20;101963.91;;;1.65;62.87
68107;BME280;54892;47.488;19.026;2022-12-18T12:53:26;101969.59;;;1.96;60.12
68107;BME280;54892;47.488;19.026;2022-12-18T12:56:48;101977.84;;;1.74;61.73
68107;BME280;54892;47.488;19.026;2022-12-18T13:00:00;101983.25;;;1.80;61.87
68107;BME280;54892;47.488;19.026;2022-12-18T13:03:13;101990.50;;;2.05;62.28
68107;BME280;54892;47.488;19.026;2022-12-18T13:06:29;101989.81;;;1.85;63.33
68107;BME280;54892;47.488;19.026;2022-12-18T13:13:18;101988.19;;;1.83;63.84
68107;BME280;54892;47.488;19.026;2022-12-18T13:16:22;101997.00;;;1.73;64.34
68107;BME280;54892;47.488;19.026;2022-12-18T13:19:26;101998.66;;;1.74;64.69
68107;BME280;54892;47.488;19.026;2022-12-18T13:22:34;101997.19;;;1.71;65.04
68107;BME280;54892;47.488;19.026;2022-12-18T13:25:38;101996.66;;;1.67;65.79
68107;BME280;54892;47.488;19.026;2022-12-18T13:28:52;101991.53;;;1.76;65.64
68107;BME280;54892;47.488;19.026;2022-12-18T13:32:00;102006.63;;;1.90;64.54
68107;BME280;54892;47.488;19.026;2022-12-18T13:39:11;102000.50;;;1.63;66.08
68107;BME280;54892;47.488;19.026;2022-12-18T13:42:39;102015.16;;;1.64;66.29
68107;BME280;54892;47.488;19.026;2022-12-18T13:46:16;102005.50;;;1.75;65.27
68107;BME280;54892;47.488;19.026;2022-12-18T13:49:24;102005.31;;;1.58;66.09
68107;BME280;54892;47.488;19.026;2022-12-18T13:52:34;102012.59;;;1.55;66.66
68107;BME280;54892;47.488;19.026;2022-12-18T13:55:44;102022.34;;;1.52;67.18
68107;BME280;54892;47.488;19.026;2022-12-18T13:59:14;102021.66;;;1.50;67.24
68107;BME280;54892;47.488;19.026;2022-12-18T14:02:21;102027.19;;;1.47;67.31
68107;BME280;54892;47.488;19.026;2022-12-18T14:05:27;102030.34;;;1.41;67.27
68107;BME280;54892;47.488;19.026;2022-12-18T14:08:38;102021.13;;;1.47;66.91
68107;BME280;54892;47.488;19.026;2022-12-18T14:11:48;102032.31;;;1.29;67.65
68107;BME280;54892;47.488;19.026;2022-12-18T14:14:52;102036.97;;;1.26;68.09
68107;BME280;54892;47.488;19.026;2022-12-18T14:17:59;102034.09;;;1.29;67.60
68107;BME280;54892;47.488;19.026;2022-12-18T14:21:04;102035.09;;;1.18;68.32
68107;BME280;54892;47.488;19.026;2022-12-18T14:24:13;102039.59;;;1.16;68.41
68107;BME280;54892;47.488;19.026;2022-12-18T14:27:24;102028.41;;;1.15;67.93
68107;BME280;54892;47.488;19.026;2022-12-18T14:30:30;102034.56;;;1.14;67.79
68107;BME280;54892;47.488;19.026;2022-12-18T14:33:38;102040.75;;;1.03;68.37
68107;BME280;54892;47.488;19.026;2022-12-18T14:36:52;102044.47;;;0.91;68.57
68107;BME280;54892;47.488;19.026;2022-12-18T14:39:57;102039.28;;;0.81;68.89
68107;BME280;54892;47.488;19.026;2022-12-18T14:43:02;102050.50;;;0.72;69.30
68107;BME280;54892;47.488;19.026;2022-12-18T14:46:26;102057.34;;;0.63;69.83
68107;BME280;54892;47.488;19.026;2022-12-18T14:49:33;102063.22;;;0.55;70.29
68107;BME280;54892;47.488;19.026;2022-12-18T14:52:38;102057.09;;;0.47;70.95
68107;BME280;54892;47.488;19.026;2022-12-18T14:55:45;102071.84;;;0.36;71.52
68107;BME280;54892;47.488;19.026;2022-12-18T14:58:53;102079.50;;;0.28;71.61
68107;BME280;54892;47.488;19.026;2022-12-18T15:02:02;102079.34;;;0.20;72.27
68107;BME280;54892;47.488;19.026;2022-12-18T15:05:18;102079.91;;;0.13;72.53
68107;BME280;54892;47.488;19.026;2022-12-18T15:08:30;102081.91;;;0.10;73.00
68107;BME280;54892;47.488;19.026;2022-12-18T15:11:44;102087.78;;;0.02;73.43
68107;BME280;54892;47.488;19.026;2022-12-18T15:15:01;102090.34;;;-0.08;73.90
68107;BME280;54892;47.488;19.026;2022-12-18T15:18:09;102088.69;;;-0.19;74.44
68107;BME280;54892;47.488;19.026;2022-12-18T15:21:18;102092.75;;;-0.26;75.00
68107;BME280;54892;47.488;19.026;2022-12-18T15:24:27;102106.38;;;-0.34;75.43
68107;BME280;54892;47.488;19.026;2022-12-18T15:27:35;102102.69;;;-0.41;75.98
68107;BME280;54892;47.488;19.026;2022-12-18T15:30:58;102105.38;;;-0.42;76.08
68107;BME280;54892;47.488;19.026;2022-12-18T15:34:12;102116.81;;;-0.55;76.90
68107;BME280;54892;47.488;19.026;2022-12-18T15:37:17;102119.91;;;-0.61;77.20
68107;BME280;54892;47.488;19.026;2022-12-18T15:40:23;102127.25;;;-0.66;77.58
68107;BME280;54892;47.488;19.026;2022-12-18T15:43:29;102130.91;;;-0.69;77.75
68107;BME280;54892;47.488;19.026;2022-12-18T15:46:43;102135.44;;;-0.71;78.09
68107;BME280;54892;47.488;19.026;2022-12-18T15:49:48;102129.09;;;-0.78;78.23
68107;BME280;54892;47.488;19.026;2022-12-18T15:52:53;102137.94;;;-0.81;78.31
68107;BME280;54892;47.488;19.026;2022-12-18T15:56:02;102140.78;;;-0.84;78.36
68107;BME280;54892;47.488;19.026;2022-12-18T15:59:27;102144.81;;;-0.91;78.70
68107;BME280;54892;47.488;19.026;2022-12-18T16:02:32;102149.19;;;-0.92;78.74
68107;BME280;54892;47.488;19.026;2022-12-18T16:05:38;102147.00;;;-0.96;78.81
68107;BME280;54892;47.488;19.026;2022-12-18T16:08:43;102153.94;;;-0.97;78.82
68107;BME280;54892;47.488;19.026;2022-12-18T16:11:49;102158.53;;;-1.00;78.98
68107;BME280;54892;47.488;19.026;2022-12-18T16:14:58;102153.38;;;-1.00;78.97
68107;BME280;54892;47.488;19.026;2022-12-18T16:18:06;102160.81;;;-1.07;79.28
68107;BME280;54892;47.488;19.026;2022-12-18T16:21:12;102166.25;;;-1.10;79.40